This is the latest recevied weather packets stored in our database for station/object KF6ILA. If no packets are shown the sender has not sent any weather packets the latest 10 day(s).
| Time | Temp. | Humidity | Pressure | Rain* | Wind** | Luminosity | Snow |
|---|---|---|---|---|---|---|---|
| 1787613391 | 30.56° C | 39% | 1018.3 hPa | 0 mm | - | 262 W/m² | - |
| 1787613094 | 31.11° C | 38% | 1018.3 hPa | 0 mm | - | 202 W/m² | - |
| 1787612797 | 31.67° C | 36% | 1018.4 hPa | 0 mm | - | 204 W/m² | - |
| 1787612500 | 32.22° C | 34% | 1018.2 hPa | 0 mm | - | 744 W/m² | - |
| 1787612203 | 31.67° C | 33% | 1018.1 hPa | 0 mm | - | 909 W/m² | - |
| 1787611906 | 31.67° C | 32% | 1018.1 hPa | 0 mm | - | 343 W/m² | - |
| 1787611609 | 31.67° C | 30% | 1018.1 hPa | 0 mm | - | 355 W/m² | - |
| 1787611015 | 31.11° C | 31% | 1018.2 hPa | 0 mm | - | 322 W/m² | - |
| 1787610421 | 31.67° C | 30% | 1018.4 hPa | 0 mm | - | 295 W/m² | - |
| 1787610124 | 31.67° C | 31% | 1018.4 hPa | 0 mm | - | 362 W/m² | - |
| 1787609827 | 31.67° C | 31% | 1018.5 hPa | 0 mm | - | 348 W/m² | - |
| 1787609530 | 31.67° C | 31% | 1018.7 hPa | 0 mm | - | 336 W/m² | - |
| 1787609233 | 31.67° C | 30% | 1018.7 hPa | 0 mm | - | 309 W/m² | - |
| 1787608936 | 31.11° C | 32% | 1018.8 hPa | 0 mm | - | 313 W/m² | - |
| 1787608639 | 31.11° C | 30% | 1018.9 hPa | 0 mm | - | 299 W/m² | - |
| 1787608342 | 31.11° C | 32% | 1018.9 hPa | 0 mm | - | 272 W/m² | - |
| 1787608045 | 32.22° C | 32% | 1019 hPa | 0 mm | - | 239 W/m² | - |
| 1787607748 | 33.33° C | 29% | 1019.1 hPa | 0 mm | - | 232 W/m² | - |
| 1787607451 | 35° C | 28% | 1019 hPa | 0 mm | - | 251 W/m² | - |
| 1787607154 | 35° C | 28% | 1019.1 hPa | 0 mm | - | 288 W/m² | - |
| 1787606857 | 34.44° C | 30% | 1019.1 hPa | 0 mm | - | 1058 W/m² | - |
| 1787606560 | 33.89° C | 30% | 1019.3 hPa | 0 mm | - | 420 W/m² | - |
| 1787606263 | 34.44° C | 29% | 1019.2 hPa | 0 mm | - | 390 W/m² | - |
| 1787605966 | 35° C | 27% | 1019.3 hPa | 0 mm | - | 376 W/m² | - |
| 1787605669 | 35.56° C | 27% | 1019.3 hPa | 0 mm | - | 1058 W/m² | - |
* Rain latest hour (hover to see other rain measurements)
** Current wind speed in m/s (hover to see current wind gust speed)